Time;durP1;ratioP1;P1;durP2;ratioP2;P2;SDS_P1;SDS_P2;PMS_P1;PMS_P2;Temp;Humidity;BMP_temperature;BMP_pressure;BME280_temperature;BME280_humidity;BME280_pressure;Samples;Min_cycle;Max_cycle;Signal;HPM_P1;HPM_P2
2021/10/16 00:01:22;;;;;;;1.00;0.90;;;20.30;61.90;;;;;;4976755;28;88090;-70
2021/10/16 00:03:49;;;;;;;1.75;0.90;;;20.30;62.00;;;;;;4943285;28;90467;-70
2021/10/16 00:06:16;;;;;;;0.70;0.70;;;20.30;62.00;;;;;;4976577;28;88570;-69
2021/10/16 00:08:44;;;;;;;1.20;0.90;;;20.30;62.00;;;;;;4942694;28;90682;-70
2021/10/16 00:11:12;;;;;;;1.27;0.90;;;20.30;62.10;;;;;;4976013;28;89218;-70
2021/10/16 00:13:41;;;;;;;1.63;0.85;;;20.30;62.10;;;;;;4976848;28;87787;-70
2021/10/16 00:16:09;;;;;;;1.38;0.73;;;20.30;62.10;;;;;;4975562;28;91206;-70
2021/10/16 00:18:36;;;;;;;2.00;1.02;;;20.30;62.10;;;;;;4959401;28;88407;-70
2021/10/16 00:21:04;;;;;;;2.35;1.13;;;20.30;62.10;;;;;;4978986;28;88263;-70
2021/10/16 00:23:31;;;;;;;2.15;1.00;;;20.30;62.20;;;;;;4957324;28;87796;-69
2021/10/16 00:25:58;;;;;;;1.58;1.00;;;20.30;62.20;;;;;;4956137;28;88597;-70
2021/10/16 00:28:25;;;;;;;1.13;0.88;;;20.20;62.20;;;;;;4967377;28;88297;-69
2021/10/16 00:30:53;;;;;;;1.13;0.75;;;20.20;62.20;;;;;;4976782;28;88119;-69
2021/10/16 00:33:19;;;;;;;1.35;0.75;;;20.20;62.20;;;;;;4959008;28;89180;-69
2021/10/16 00:35:47;;;;;;;1.00;0.90;;;20.20;62.30;;;;;;4958312;28;89257;-70
2021/10/16 00:38:13;;;;;;;0.73;0.73;;;20.20;62.20;;;;;;4971692;28;89077;-70
2021/10/16 00:40:40;;;;;;;1.27;1.13;;;20.20;62.30;;;;;;4939697;28;89462;-70
2021/10/16 00:43:08;;;;;;;1.38;1.23;;;20.20;62.30;;;;;;4957313;28;87843;-70
2021/10/16 00:45:35;;;;;;;0.80;0.80;;;20.20;62.30;;;;;;4940030;28;89194;-69
2021/10/16 00:48:02;;;;;;;0.75;0.68;;;20.20;62.30;;;;;;4955323;28;91068;-69
2021/10/16 00:50:29;;;;;;;0.75;0.65;;;20.20;62.40;;;;;;4964827;28;88767;-70
2021/10/16 00:52:56;;;;;;;1.27;0.80;;;20.20;62.40;;;;;;4976835;28;87676;-70
2021/10/16 00:55:26;;;;;;;0.82;0.77;;;20.20;62.40;;;;;;4958607;28;87964;-69
2021/10/16 00:57:54;;;;;;;0.95;0.90;;;20.20;62.40;;;;;;4974747;28;89899;-69
2021/10/16 01:00:21;;;;;;;1.27;1.17;;;20.20;62.40;;;;;;4976384;28;88823;-69
2021/10/16 01:02:48;;;;;;;1.00;0.90;;;20.20;62.40;;;;;;4958596;28;88286;-69
2021/10/16 01:05:17;;;;;;;1.05;0.60;;;20.20;62.50;;;;;;4942814;28;90624;-69
2021/10/16 01:07:44;;;;;;;1.40;1.30;;;20.20;62.50;;;;;;4958157;28;89404;-69
2021/10/16 01:10:13;;;;;;;0.70;0.70;;;20.20;62.50;;;;;;4974787;28;89109;-68
2021/10/16 01:12:41;;;;;;;0.82;0.77;;;20.20;62.50;;;;;;4958610;28;90587;-70
2021/10/16 01:15:12;;;;;;;1.45;0.82;;;20.20;62.50;;;;;;4958533;28;91340;-70
2021/10/16 01:17:41;;;;;;;1.40;1.30;;;20.20;62.50;;;;;;4958652;28;90790;-69
2021/10/16 01:20:11;;;;;;;1.13;0.95;;;20.20;62.60;;;;;;4955946;28;87916;-69
2021/10/16 01:22:41;;;;;;;1.17;0.90;;;20.20;62.60;;;;;;4955312;28;88150;-69
2021/10/16 01:25:14;;;;;;;0.60;0.60;;;20.20;62.60;;;;;;4953840;28;92031;-70
2021/10/16 01:27:41;;;;;;;1.15;0.73;;;20.20;62.70;;;;;;4942951;28;89228;-70
2021/10/16 01:30:11;;;;;;;0.80;0.80;;;20.10;63.30;;;;;;4962924;28;88011;-69
2021/10/16 01:32:39;;;;;;;1.08;0.85;;;20.20;62.70;;;;;;4954929;28;87878;-70
2021/10/16 01:35:08;;;;;;;0.93;0.80;;;20.10;62.60;;;;;;4922777;28;91214;-70
2021/10/16 01:37:40;;;;;;;1.23;0.80;;;20.20;62.70;;;;;;4955917;28;88559;-69
2021/10/16 01:40:09;;;;;;;1.10;1.00;;;20.20;62.80;;;;;;4954957;28;89009;-69
2021/10/16 01:42:41;;;;;;;0.80;0.80;;;20.20;62.80;;;;;;4955000;28;89755;-69
2021/10/16 01:45:17;;;;;;;1.00;0.90;;;20.10;62.70;;;;;;4939263;28;91694;-69
2021/10/16 01:47:46;;;;;;;1.17;0.93;;;20.10;62.70;;;;;;4939142;28;90531;-69
2021/10/16 01:50:16;;;;;;;1.40;1.10;;;20.10;62.70;;;;;;4938611;28;88680;-69
2021/10/16 01:52:43;;;;;;;0.95;0.90;;;20.20;62.80;;;;;;4956233;28;88022;-69
2021/10/16 01:55:10;;;;;;;1.00;0.90;;;20.10;63.50;;;;;;4939928;28;90779;-69
2021/10/16 01:57:37;;;;;;;1.15;1.00;;;20.10;62.80;;;;;;4945029;28;90335;-70
2021/10/16 02:00:07;;;;;;;1.00;0.90;;;20.10;62.80;;;;;;4957089;28;89098;-70
2021/10/16 02:02:35;;;;;;;1.65;1.02;;;20.10;62.80;;;;;;4977585;28;87883;-69
2021/10/16 02:05:27;;;;;;;1.00;0.90;;;20.10;62.80;;;;;;4960899;28;91278;-69
2021/10/16 02:08:11;;;;;;;0.60;0.60;;;20.10;62.90;;;;;;4933168;28;89325;-69
2021/10/16 02:10:38;;;;;;;1.60;0.90;;;20.10;62.90;;;;;;4960526;28;90727;-70
2021/10/16 02:13:07;;;;;;;1.10;0.60;;;20.10;62.90;;;;;;4961244;28;90476;-69
2021/10/16 02:15:47;;;;;;;1.20;1.15;;;20.10;62.90;;;;;;4963564;28;91879;-70
2021/10/16 02:18:25;;;;;;;1.23;0.60;;;20.10;62.90;;;;;;4965654;28;92056;-69
2021/10/16 02:20:52;;;;;;;0.80;0.68;;;20.10;62.90;;;;;;4980499;28;89170;-70
2021/10/16 02:23:25;;;;;;;0.98;0.88;;;20.10;62.90;;;;;;4980543;28;90276;-69
2021/10/16 02:25:52;;;;;;;0.68;0.68;;;20.10;63.00;;;;;;4948532;28;90759;-69
2021/10/16 02:28:22;;;;;;;1.40;0.80;;;20.10;63.00;;;;;;4976621;28;89350;-69
2021/10/16 02:31:01;;;;;;;1.13;0.60;;;20.10;63.00;;;;;;4946024;28;89011;-70
2021/10/16 02:33:30;;;;;;;1.25;0.93;;;20.10;63.60;;;;;;4944929;28;88935;-70
2021/10/16 02:35:58;;;;;;;1.10;0.80;;;20.00;63.00;;;;;;4944618;28;90544;-70
2021/10/16 02:38:26;;;;;;;1.00;0.80;;;20.10;63.00;;;;;;4943554;28;91085;-70
2021/10/16 02:40:53;;;;;;;0.85;0.85;;;20.10;63.00;;;;;;4977387;28;88681;-69
2021/10/16 02:43:20;;;;;;;0.80;0.80;;;20.10;63.10;;;;;;4977774;28;87948;-70
2021/10/16 02:45:47;;;;;;;1.02;0.93;;;20.00;63.00;;;;;;4959470;28;91090;-69
2021/10/16 02:48:14;;;;;;;1.27;0.88;;;20.00;63.00;;;;;;4959887;28;90715;-70
2021/10/16 02:50:42;;;;;;;1.08;0.63;;;20.00;63.00;;;;;;4959442;28;87841;-69
2021/10/16 02:53:09;;;;;;;0.80;0.57;;;20.00;63.10;;;;;;4943559;28;90230;-69
2021/10/16 02:55:36;;;;;;;0.80;0.80;;;20.00;63.00;;;;;;4931149;28;91315;-70
2021/10/16 02:58:03;;;;;;;0.93;0.85;;;20.00;63.00;;;;;;4957550;28;90755;-69
2021/10/16 03:00:34;;;;;;;1.27;0.90;;;20.00;63.00;;;;;;4925555;28;88926;-69
2021/10/16 03:03:04;;;;;;;0.60;0.60;;;20.00;63.10;;;;;;4957029;28;89215;-69
2021/10/16 03:05:31;;;;;;;0.80;0.60;;;20.00;63.10;;;;;;4945656;28;92298;-69
2021/10/16 03:07:59;;;;;;;0.77;0.70;;;20.00;63.10;;;;;;4960173;28;91408;-69
2021/10/16 03:10:26;;;;;;;0.80;0.60;;;20.00;63.40;;;;;;4959488;28;88079;-69
2021/10/16 03:12:53;;;;;;;1.33;0.80;;;20.00;63.00;;;;;;4960394;28;88998;-69
2021/10/16 03:15:22;;;;;;;0.82;0.70;;;20.00;63.10;;;;;;4976149;28;90806;-69
2021/10/16 03:17:49;;;;;;;0.50;0.50;;;20.00;63.10;;;;;;4959827;28;90493;-69
2021/10/16 03:20:18;;;;;;;0.80;0.80;;;20.00;63.20;;;;;;4978083;28;87888;-69
2021/10/16 03:22:45;;;;;;;1.10;0.70;;;20.00;63.10;;;;;;4978185;28;87110;-69
2021/10/16 03:25:12;;;;;;;1.35;0.70;;;20.00;63.20;;;;;;4944357;28;90977;-70
2021/10/16 03:27:39;;;;;;;0.73;0.60;;;20.00;63.20;;;;;;4940534;28;90772;-69
2021/10/16 03:30:06;;;;;;;1.40;0.85;;;20.00;63.20;;;;;;4940027;28;89032;-70
2021/10/16 03:32:34;;;;;;;0.70;0.70;;;20.00;63.30;;;;;;4955572;28;90271;-69
2021/10/16 03:35:01;;;;;;;1.00;0.82;;;20.00;63.30;;;;;;4922897;28;91247;-69
2021/10/16 03:37:28;;;;;;;0.80;0.80;;;20.00;63.30;;;;;;4955380;28;90698;-69
2021/10/16 03:39:55;;;;;;;1.40;0.60;;;20.00;63.30;;;;;;4939455;28;88327;-69
2021/10/16 03:42:22;;;;;;;0.80;0.77;;;20.00;63.30;;;;;;4956211;28;90326;-70
2021/10/16 03:45:01;;;;;;;0.60;0.60;;;20.00;63.30;;;;;;4956009;28;90253;-69
2021/10/16 03:47:28;;;;;;;0.65;0.60;;;20.00;63.30;;;;;;4939995;28;90478;-69
2021/10/16 03:49:55;;;;;;;1.42;1.02;;;19.90;63.30;;;;;;4939625;28;89430;-69
2021/10/16 03:52:22;;;;;;;0.75;0.60;;;20.00;63.40;;;;;;4956436;28;88724;-69
2021/10/16 03:54:50;;;;;;;0.68;0.68;;;20.00;63.40;;;;;;4940720;28;91371;-69
2021/10/16 03:57:17;;;;;;;0.60;0.60;;;20.00;63.40;;;;;;4956270;28;91539;-69
2021/10/16 03:59:46;;;;;;;1.13;0.60;;;20.00;63.50;;;;;;4924028;28;88773;-69
2021/10/16 04:02:13;;;;;;;0.57;0.57;;;20.00;63.40;;;;;;4955839;28;89924;-70
2021/10/16 04:04:40;;;;;;;0.65;0.65;;;20.00;63.60;;;;;;4923342;28;91243;-69
2021/10/16 04:07:08;;;;;;;0.60;0.60;;;20.00;63.50;;;;;;4974849;28;90488;-69
2021/10/16 04:09:35;;;;;;;0.60;0.60;;;20.00;63.60;;;;;;4959081;28;89066;-69
2021/10/16 04:12:03;;;;;;;0.70;0.70;;;20.00;63.60;;;;;;4959214;28;90520;-70
2021/10/16 04:14:32;;;;;;;0.47;0.47;;;19.90;63.50;;;;;;4958645;28;91452;-70
2021/10/16 04:16:59;;;;;;;0.90;0.80;;;20.00;63.60;;;;;;4958782;28;90945;-70
2021/10/16 04:19:26;;;;;;;0.88;0.82;;;19.90;63.60;;;;;;4958878;28;89125;-69
2021/10/16 04:21:54;;;;;;;0.70;0.70;;;19.90;63.60;;;;;;4958366;28;88889;-69
2021/10/16 04:24:21;;;;;;;0.68;0.68;;;19.90;63.60;;;;;;4945344;28;91184;-69
2021/10/16 04:26:49;;;;;;;0.63;0.60;;;19.90;63.70;;;;;;4955483;28;90881;-69
2021/10/16 04:29:24;;;;;;;1.92;0.90;;;19.90;63.60;;;;;;4955514;28;88275;-69
2021/10/16 04:32:17;;;;;;;0.82;0.50;;;19.90;63.70;;;;;;4929226;28;88727;-69
2021/10/16 04:34:44;;;;;;;0.90;0.60;;;19.90;63.70;;;;;;4955905;28;88652;-69
2021/10/16 04:37:11;;;;;;;0.68;0.55;;;19.90;63.70;;;;;;4956052;28;88390;-69
2021/10/16 04:39:38;;;;;;;1.42;0.85;;;19.90;64.30;;;;;;4939254;28;88729;-69
2021/10/16 04:42:06;;;;;;;0.75;0.73;;;19.90;63.70;;;;;;4939579;28;90132;-69
2021/10/16 04:44:35;;;;;;;1.63;1.00;;;19.90;63.80;;;;;;4955322;28;91964;-69
2021/10/16 04:47:03;;;;;;;0.77;0.60;;;19.90;63.80;;;;;;4939386;28;91405;-69
2021/10/16 04:49:34;;;;;;;0.60;0.60;;;19.90;63.80;;;;;;4923492;28;89295;-69
2021/10/16 04:52:03;;;;;;;0.63;0.63;;;19.90;63.80;;;;;;4945706;28;90671;-69
2021/10/16 04:54:30;;;;;;;0.57;0.57;;;19.90;63.80;;;;;;4975133;28;91140;-69
2021/10/16 04:56:57;;;;;;;1.80;0.65;;;19.90;63.90;;;;;;4991742;28;91069;-69
2021/10/16 04:59:26;;;;;;;1.23;0.70;;;19.90;63.90;;;;;;4958768;28;88361;-69
2021/10/16 05:01:54;;;;;;;1.10;0.70;;;19.90;63.90;;;;;;4958953;28;90070;-69
2021/10/16 05:04:22;;;;;;;0.95;0.70;;;19.90;63.90;;;;;;4973806;28;91189;-70
2021/10/16 05:06:54;;;;;;;0.98;0.70;;;19.90;63.90;;;;;;4957354;28;89782;-69
2021/10/16 05:09:21;;;;;;;1.73;0.70;;;19.90;64.00;;;;;;4941618;28;88937;-69
2021/10/16 05:11:48;;;;;;;1.27;1.17;;;19.90;64.00;;;;;;4958574;28;90368;-69
2021/10/16 05:14:16;;;;;;;0.77;0.73;;;19.90;64.00;;;;;;4974829;28;91079;-70
2021/10/16 05:16:44;;;;;;;0.60;0.60;;;19.90;64.00;;;;;;4958658;28;90621;-69
2021/10/16 05:19:12;;;;;;;0.60;0.60;;;19.90;64.10;;;;;;4942656;28;89305;-69
2021/10/16 05:21:39;;;;;;;0.57;0.57;;;19.90;64.10;;;;;;4936765;28;90545;-69
2021/10/16 05:24:06;;;;;;;0.50;0.50;;;19.90;64.10;;;;;;4938821;28;91589;-69
2021/10/16 05:26:35;;;;;;;0.50;0.50;;;19.90;64.10;;;;;;4955674;28;90626;-69
2021/10/16 05:29:03;;;;;;;0.60;0.60;;;19.80;64.10;;;;;;4975129;28;88890;-69
2021/10/16 05:31:31;;;;;;;0.70;0.70;;;19.90;64.10;;;;;;4974689;28;89959;-69
2021/10/16 05:33:58;;;;;;;1.30;1.10;;;19.90;64.10;;;;;;4975154;28;89376;-69
2021/10/16 05:36:25;;;;;;;1.10;1.10;;;19.90;64.10;;;;;;4958964;28;89987;-69
2021/10/16 05:38:52;;;;;;;1.33;1.02;;;19.80;64.10;;;;;;4979673;28;88169;-69
2021/10/16 05:41:19;;;;;;;0.60;0.60;;;19.90;64.20;;;;;;4961873;28;90912;-69
2021/10/16 05:43:47;;;;;;;1.00;0.60;;;19.90;64.20;;;;;;4961563;28;90783;-69
2021/10/16 05:46:16;;;;;;;0.65;0.60;;;19.90;64.20;;;;;;4977600;28;91104;-69
2021/10/16 05:48:46;;;;;;;0.70;0.70;;;19.80;64.20;;;;;;4977517;28;88695;-70
2021/10/16 05:51:14;;;;;;;0.95;0.70;;;19.90;64.30;;;;;;4957556;28;90372;-69
2021/10/16 05:53:40;;;;;;;0.70;0.70;;;19.80;64.30;;;;;;4966287;28;90908;-69
2021/10/16 05:56:08;;;;;;;0.82;0.82;;;19.90;64.30;;;;;;4961658;28;89980;-69
2021/10/16 05:58:38;;;;;;;0.60;0.55;;;19.80;64.30;;;;;;4978778;28;88891;-69
2021/10/16 06:01:05;;;;;;;0.82;0.70;;;19.80;64.30;;;;;;4961260;28;90103;-69
2021/10/16 06:03:41;;;;;;;0.77;0.50;;;19.80;64.40;;;;;;4960552;28;90961;-69
2021/10/16 06:06:08;;;;;;;1.83;0.63;;;19.90;64.40;;;;;;4977114;28;89971;-69
2021/10/16 06:08:35;;;;;;;0.80;0.80;;;19.80;64.30;;;;;;4960646;28;88979;-69
2021/10/16 06:11:04;;;;;;;0.82;0.70;;;19.80;64.30;;;;;;4972110;28;90384;-69
2021/10/16 06:13:32;;;;;;;1.20;0.70;;;19.90;64.40;;;;;;4956986;28;90920;-69
2021/10/16 06:15:59;;;;;;;1.30;0.70;;;19.90;64.30;;;;;;4951350;28;90794;-69
2021/10/16 06:18:26;;;;;;;0.93;0.70;;;20.00;64.10;;;;;;4955908;28;88436;-69
2021/10/16 06:20:53;;;;;;;1.55;0.75;;;20.10;64.00;;;;;;4956465;28;89930;-69
2021/10/16 06:23:21;;;;;;;0.60;0.60;;;20.10;63.90;;;;;;4957041;28;90399;-69
2021/10/16 06:25:49;;;;;;;1.55;0.70;;;20.10;63.80;;;;;;4973655;28;90467;-69
2021/10/16 06:28:17;;;;;;;0.70;0.70;;;20.10;63.70;;;;;;4957643;28;89312;-69
2021/10/16 06:30:44;;;;;;;0.90;0.70;;;20.10;63.70;;;;;;4957449;28;88231;-69
2021/10/16 06:33:11;;;;;;;0.80;0.70;;;20.10;63.60;;;;;;4973904;28;91043;-69
2021/10/16 06:35:41;;;;;;;0.85;0.85;;;20.20;63.50;;;;;;4957545;28;91181;-69
2021/10/16 06:38:21;;;;;;;0.77;0.63;;;20.20;63.40;;;;;;4970269;28;88806;-69
2021/10/16 06:40:48;;;;;;;0.73;0.70;;;20.20;63.30;;;;;;4970950;28;89638;-69
2021/10/16 06:43:50;;;;;;;0.75;0.75;;;20.20;63.30;;;;;;4952218;28;89497;-69
2021/10/16 06:46:25;;;;;;;0.98;0.70;;;20.20;63.10;;;;;;4942545;28;91062;-69
2021/10/16 06:49:11;;;;;;;0.70;0.70;;;20.20;63.00;;;;;;4927589;28;89053;-69
2021/10/16 06:51:39;;;;;;;0.70;0.70;;;20.30;63.00;;;;;;4937924;28;90201;-69
2021/10/16 06:54:06;;;;;;;0.80;0.80;;;20.20;62.90;;;;;;4938200;28;91331;-69
2021/10/16 06:56:33;;;;;;;1.48;0.95;;;20.30;62.90;;;;;;4921611;28;91140;-69
2021/10/16 06:59:00;;;;;;;1.45;0.65;;;20.30;62.80;;;;;;4950836;28;89377;-70
2021/10/16 07:01:28;;;;;;;1.17;0.90;;;20.30;62.70;;;;;;4925035;28;89946;-70
2021/10/16 07:04:05;;;;;;;0.82;0.70;;;20.30;62.60;;;;;;4973790;28;91114;-69
2021/10/16 07:06:33;;;;;;;0.88;0.70;;;20.30;62.60;;;;;;4970330;28;91163;-69
2021/10/16 07:09:01;;;;;;;1.30;1.20;;;20.30;62.60;;;;;;4953974;28;88212;-69
2021/10/16 07:11:28;;;;;;;1.42;0.77;;;20.30;62.50;;;;;;4951070;28;88785;-69
2021/10/16 07:13:55;;;;;;;2.00;1.10;;;20.30;62.40;;;;;;4938664;28;88746;-69
2021/10/16 07:16:22;;;;;;;0.70;0.70;;;20.30;62.40;;;;;;4953664;28;91214;-69
2021/10/16 07:18:49;;;;;;;0.98;0.80;;;20.30;62.30;;;;;;4967651;28;87933;-69
2021/10/16 07:21:16;;;;;;;1.48;0.93;;;20.30;62.30;;;;;;4973558;28;88034;-69
2021/10/16 07:23:57;;;;;;;1.15;1.05;;;20.30;62.20;;;;;;4956676;28;90887;-69
2021/10/16 07:26:25;;;;;;;0.80;0.80;;;20.30;62.20;;;;;;4958405;28;88312;-69
2021/10/16 07:28:52;;;;;;;1.77;1.10;;;20.30;62.10;;;;;;4958128;28;87745;-69
2021/10/16 07:31:19;;;;;;;0.98;0.70;;;20.30;62.10;;;;;;4957917;28;87960;-69
2021/10/16 07:33:46;;;;;;;0.88;0.70;;;20.30;62.10;;;;;;4957582;28;88814;-69
2021/10/16 07:36:13;;;;;;;1.30;1.08;;;20.30;62.10;;;;;;4958142;28;88788;-69
2021/10/16 07:38:40;;;;;;;1.90;1.00;;;20.30;62.00;;;;;;4956894;28;88614;-69
2021/10/16 07:41:07;;;;;;;0.88;0.80;;;20.30;62.00;;;;;;4955837;28;87889;-69
2021/10/16 07:43:34;;;;;;;0.70;0.70;;;20.40;62.10;;;;;;4956961;28;88742;-70
2021/10/16 07:46:01;;;;;;;1.38;0.77;;;20.40;62.10;;;;;;4972453;28;88414;-69
2021/10/16 07:48:28;;;;;;;1.52;0.80;;;20.40;62.10;;;;;;4972092;28;88987;-69
2021/10/16 07:50:55;;;;;;;1.42;0.80;;;20.40;62.10;;;;;;4957042;28;88243;-69
2021/10/16 07:53:22;;;;;;;1.48;0.68;;;20.40;62.10;;;;;;4955726;28;88637;-69
2021/10/16 07:55:49;;;;;;;0.75;0.75;;;20.40;62.10;;;;;;4956634;28;91272;-69
2021/10/16 07:58:16;;;;;;;1.70;1.08;;;20.40;62.20;;;;;;4957323;28;88121;-69
2021/10/16 08:00:43;;;;;;;0.73;0.73;;;20.40;62.20;;;;;;4938354;28;90432;-69
2021/10/16 08:03:10;;;;;;;1.55;0.98;;;20.40;62.30;;;;;;4956580;28;89890;-69
2021/10/16 08:05:37;;;;;;;0.80;0.80;;;20.30;62.30;;;;;;4956699;28;89140;-69
2021/10/16 08:08:04;;;;;;;1.65;0.90;;;20.40;62.40;;;;;;4954599;28;87978;-69
2021/10/16 08:10:31;;;;;;;1.00;0.73;;;20.40;62.30;;;;;;4955281;28;89964;-69
2021/10/16 08:12:58;;;;;;;1.63;0.95;;;20.40;62.30;;;;;;4959477;28;88685;-69
2021/10/16 08:15:25;;;;;;;1.15;0.90;;;20.40;62.30;;;;;;4975834;28;88426;-70
2021/10/16 08:17:52;;;;;;;1.20;0.80;;;20.30;62.20;;;;;;4942150;28;89514;-69
2021/10/16 08:20:19;;;;;;;2.53;1.17;;;20.40;62.30;;;;;;4959995;28;87857;-69
2021/10/16 08:22:46;;;;;;;1.42;1.33;;;20.40;62.20;;;;;;4957729;28;91537;-69
2021/10/16 08:25:13;;;;;;;1.05;0.68;;;20.40;62.20;;;;;;4975916;28;88986;-69
2021/10/16 08:27:40;;;;;;;1.40;1.20;;;20.40;62.20;;;;;;4955601;28;89269;-69
2021/10/16 08:30:09;;;;;;;2.97;0.88;;;20.40;62.20;;;;;;4975585;28;87947;-69
2021/10/16 08:32:38;;;;;;;2.88;1.27;;;20.40;62.30;;;;;;4975961;28;91547;-69
2021/10/16 08:35:06;;;;;;;1.27;0.90;;;20.40;62.20;;;;;;4957860;28;88340;-69
2021/10/16 08:37:33;;;;;;;1.75;0.90;;;20.40;62.20;;;;;;4958874;28;88118;-69
2021/10/16 08:40:00;;;;;;;2.15;1.02;;;20.40;62.20;;;;;;4957693;28;90366;-69
2021/10/16 08:42:27;;;;;;;2.20;1.13;;;20.40;62.20;;;;;;4971451;28;88704;-70
2021/10/16 08:44:59;;;;;;;3.83;1.40;;;20.40;62.30;;;;;;4970722;28;88308;-69
2021/10/16 08:47:33;;;;;;;1.48;1.15;;;20.40;62.20;;;;;;4973563;28;88161;-69
2021/10/16 08:50:01;;;;;;;1.67;0.90;;;20.40;62.20;;;;;;4976561;28;87818;-69
2021/10/16 08:52:28;;;;;;;2.22;0.85;;;20.40;62.20;;;;;;4976140;28;89229;-70
2021/10/16 08:54:58;;;;;;;2.28;0.90;;;20.40;62.20;;;;;;4976480;28;89561;-69
2021/10/16 08:57:42;;;;;;;1.35;0.80;;;20.40;62.20;;;;;;4976669;28;87802;-69
2021/10/16 09:00:28;;;;;;;;;;;20.40;62.20;;;;;;4977346;28;87859;-70
2021/10/16 09:02:55;;;;;;;1.80;0.80;;;20.40;62.20;;;;;;4977125;28;88558;-69
2021/10/16 09:05:22;;;;;;;2.03;0.80;;;20.40;62.20;;;;;;4958842;28;91257;-69
2021/10/16 09:07:49;;;;;;;1.75;1.05;;;20.40;62.20;;;;;;4944361;28;88389;-69
2021/10/16 09:10:23;;;;;;;2.33;0.73;;;20.40;62.20;;;;;;4959136;28;88178;-70
2021/10/16 09:12:54;;;;;;;2.20;0.80;;;20.40;62.20;;;;;;4961559;28;91202;-70
2021/10/16 09:15:23;;;;;;;2.90;1.00;;;20.40;62.20;;;;;;4980266;28;88656;-69
2021/10/16 09:18:06;;;;;;;2.13;1.10;;;20.40;62.20;;;;;;4979972;28;88913;-69
2021/10/16 09:20:37;;;;;;;2.10;0.90;;;20.40;62.10;;;;;;4979600;28;87809;-69
2021/10/16 09:23:06;;;;;;;1.80;0.90;;;20.40;62.10;;;;;;4961885;28;91361;-70
2021/10/16 09:25:34;;;;;;;3.25;1.45;;;20.40;62.10;;;;;;4978052;28;88315;-69
2021/10/16 09:28:18;;;;;;;1.65;1.17;;;20.40;62.10;;;;;;4979325;28;88955;-70
2021/10/16 09:30:48;;;;;;;1.75;1.10;;;20.40;62.80;;;;;;4979449;28;87932;-70
2021/10/16 09:33:15;;;;;;;0.98;0.90;;;20.40;62.10;;;;;;4979731;28;88804;-70
2021/10/16 09:35:42;;;;;;;1.30;1.02;;;20.40;62.10;;;;;;4960668;28;91336;-69
2021/10/16 09:38:10;;;;;;;1.55;0.90;;;20.40;62.10;;;;;;4962217;28;88261;-70
2021/10/16 09:40:38;;;;;;;2.83;1.33;;;20.40;62.10;;;;;;4977930;28;87849;-69
2021/10/16 09:43:21;;;;;;;2.42;1.00;;;20.40;62.10;;;;;;4959654;28;89324;-69
2021/10/16 09:46:08;;;;;;;1.52;1.02;;;20.40;62.10;;;;;;4961611;28;91850;-70
2021/10/16 09:48:36;;;;;;;1.30;1.02;;;20.40;62.10;;;;;;4974156;28;89358;-69
2021/10/16 09:51:03;;;;;;;1.75;1.23;;;20.40;62.00;;;;;;4961357;28;88411;-70
2021/10/16 09:53:30;;;;;;;2.92;0.80;;;20.40;62.00;;;;;;4961069;28;88671;-69
2021/10/16 09:55:57;;;;;;;0.93;0.80;;;20.40;62.00;;;;;;4978785;28;88597;-69
2021/10/16 09:58:25;;;;;;;1.40;0.90;;;20.40;62.00;;;;;;4977885;28;87752;-70
2021/10/16 10:00:53;;;;;;;1.00;0.82;;;20.40;62.00;;;;;;4959967;28;89265;-69
2021/10/16 10:03:24;;;;;;;2.38;1.00;;;20.40;62.00;;;;;;4978736;28;88663;-69
2021/10/16 10:05:52;;;;;;;3.00;1.35;;;20.40;62.00;;;;;;4964046;28;88410;-70
2021/10/16 10:08:19;;;;;;;2.72;1.10;;;20.50;62.00;;;;;;4979442;28;88587;-69
2021/10/16 10:10:50;;;;;;;2.15;1.00;;;20.40;61.90;;;;;;4975950;28;88408;-69
2021/10/16 10:13:17;;;;;;;1.30;1.08;;;20.40;61.90;;;;;;4974103;28;88611;-69
2021/10/16 10:15:45;;;;;;;1.50;1.40;;;20.40;61.90;;;;;;4979418;28;88290;-69
2021/10/16 10:20:59;;;;;;;2.00;0.95;;;20.40;61.90;;;;;;4965508;28;87853;-69
2021/10/16 10:23:27;;;;;;;1.23;0.90;;;20.40;61.90;;;;;;4977811;28;89210;-69
2021/10/16 10:26:23;;;;;;;2.45;1.40;;;20.40;61.90;;;;;;4960450;28;88352;-69
2021/10/16 10:28:56;;;;;;;1.95;1.00;;;20.40;61.90;;;;;;4976244;28;88816;-69
2021/10/16 10:31:51;;;;;;;2.00;1.00;;;20.40;61.90;;;;;;4966430;28;88019;-68
2021/10/16 10:34:25;;;;;;;1.05;0.90;;;20.40;61.90;;;;;;4959132;28;89509;-69
2021/10/16 10:36:58;;;;;;;2.20;1.27;;;20.40;62.40;;;;;;4967984;28;88123;-69
2021/10/16 10:39:33;;;;;;;2.28;0.90;;;20.40;61.80;;;;;;4978934;28;89273;-69
2021/10/16 10:42:13;;;;;;;1.85;1.10;;;20.40;61.80;;;;;;4994153;28;88469;-70
2021/10/16 10:44:49;;;;;;;1.73;1.17;;;20.40;61.90;;;;;;4977853;28;88773;-69
2021/10/16 10:47:24;;;;;;;1.45;0.90;;;20.40;61.80;;;;;;4975193;28;88973;-69
2021/10/16 10:49:53;;;;;;;2.00;1.08;;;20.40;61.80;;;;;;4977620;28;87807;-69
2021/10/16 10:52:22;;;;;;;2.35;1.10;;;20.40;61.70;;;;;;4978921;28;88363;-69
2021/10/16 10:54:58;;;;;;;2.25;0.90;;;20.50;61.80;;;;;;4978288;28;89352;-69
2021/10/16 11:00:38;;;;;;;1.58;1.10;;;20.40;61.70;;;;;;4975417;28;89006;-69
2021/10/16 11:03:27;;;;;;;1.17;0.93;;;20.40;61.70;;;;;;4954315;28;88265;-69
2021/10/16 11:05:56;;;;;;;1.25;1.08;;;20.40;61.70;;;;;;4954288;28;88830;-69
2021/10/16 11:08:23;;;;;;;1.40;1.00;;;20.40;61.70;;;;;;4958322;28;87973;-70
2021/10/16 11:10:57;;;;;;;1.48;1.13;;;20.40;61.70;;;;;;4942906;28;89151;-69
2021/10/16 11:13:24;;;;;;;4.18;0.95;;;20.40;61.70;;;;;;4965910;28;88495;-69
2021/10/16 11:15:59;;;;;;;1.35;1.00;;;20.40;61.70;;;;;;4968568;28;89073;-70
2021/10/16 11:18:27;;;;;;;4.03;1.23;;;20.40;61.70;;;;;;4966239;28;87885;-69
2021/10/16 11:21:00;;;;;;;1.67;1.23;;;20.40;61.70;;;;;;4959105;28;87893;-69
2021/10/16 11:23:27;;;;;;;1.58;1.08;;;20.40;61.70;;;;;;4973779;28;88934;-69
2021/10/16 11:26:03;;;;;;;2.55;1.00;;;20.40;61.70;;;;;;4939202;28;89364;-69
2021/10/16 11:28:32;;;;;;;2.33;1.08;;;20.40;61.80;;;;;;4975079;28;89012;-69
2021/10/16 11:31:00;;;;;;;1.38;1.08;;;20.40;61.70;;;;;;4976604;28;88126;-69
2021/10/16 11:33:32;;;;;;;1.73;0.90;;;20.40;61.70;;;;;;4977083;28;87860;-69
2021/10/16 11:36:00;;;;;;;1.67;1.17;;;20.40;61.70;;;;;;4976876;28;88646;-69
2021/10/16 11:38:32;;;;;;;2.33;1.00;;;20.40;61.60;;;;;;4976422;28;88394;-70
2021/10/16 11:41:01;;;;;;;1.08;0.98;;;20.40;61.60;;;;;;4974674;28;87856;-69
2021/10/16 11:43:31;;;;;;;2.58;1.00;;;20.40;61.60;;;;;;4974741;28;87831;-70
2021/10/16 11:45:58;;;;;;;2.05;1.20;;;20.40;61.60;;;;;;4976138;28;88468;-70
2021/10/16 11:48:26;;;;;;;1.80;1.30;;;20.40;61.50;;;;;;4976375;28;88614;-70
2021/10/16 11:51:01;;;;;;;1.92;1.00;;;20.40;61.40;;;;;;4975070;28;89406;-70
2021/10/16 11:53:31;;;;;;;3.20;1.33;;;20.40;61.40;;;;;;4976136;28;88710;-70
2021/10/16 11:56:00;;;;;;;2.25;1.02;;;20.40;61.40;;;;;;4976305;28;88696;-70
2021/10/16 11:58:29;;;;;;;2.55;1.02;;;20.40;61.30;;;;;;4956806;28;88409;-70
2021/10/16 12:00:57;;;;;;;3.65;1.17;;;20.40;61.30;;;;;;4975612;28;88137;-70
2021/10/16 12:03:29;;;;;;;2.78;1.10;;;20.40;61.20;;;;;;4976330;28;88780;-70
2021/10/16 12:05:56;;;;;;;1.55;1.15;;;20.40;61.10;;;;;;4976716;28;89666;-70
2021/10/16 12:08:29;;;;;;;3.20;1.35;;;20.40;61.10;;;;;;4959984;28;88699;-69
2021/10/16 12:11:03;;;;;;;1.50;1.00;;;20.40;61.10;;;;;;4967053;28;88199;-70
2021/10/16 12:13:37;;;;;;;2.30;1.13;;;20.40;61.00;;;;;;4976257;28;88741;-70
2021/10/16 12:16:25;;;;;;;1.92;1.63;;;20.40;60.80;;;;;;4976625;28;88887;-70
2021/10/16 12:18:53;;;;;;;2.17;1.60;;;20.40;60.70;;;;;;4971973;28;89514;-70
2021/10/16 12:21:48;;;;;;;3.87;1.40;;;20.40;60.70;;;;;;4959368;28;87879;-70
2021/10/16 12:24:25;;;;;;;2.15;1.17;;;20.40;60.70;;;;;;4956913;28;88094;-70
2021/10/16 12:27:05;;;;;;;4.63;1.52;;;20.40;60.70;;;;;;4956515;28;89477;-70
2021/10/16 12:29:35;;;;;;;2.60;1.50;;;20.40;60.80;;;;;;4973095;28;88877;-70
2021/10/16 12:32:05;;;;;;;3.33;1.30;;;20.40;60.80;;;;;;4975458;28;88884;-70
2021/10/16 12:34:34;;;;;;;2.38;1.33;;;20.40;60.80;;;;;;4976438;28;87699;-70
2021/10/16 12:37:06;;;;;;;3.88;1.33;;;20.40;60.70;;;;;;4975926;28;88355;-70
2021/10/16 12:39:45;;;;;;;4.77;1.50;;;20.40;60.70;;;;;;4958629;28;88332;-70
2021/10/16 12:42:17;;;;;;;4.13;1.40;;;20.40;60.70;;;;;;4966775;28;88859;-70
2021/10/16 12:44:46;;;;;;;3.33;1.30;;;20.40;60.80;;;;;;4939802;28;89137;-70
2021/10/16 12:47:18;;;;;;;5.10;1.50;;;20.40;60.80;;;;;;4970843;28;88481;-70
2021/10/16 12:49:47;;;;;;;3.35;1.10;;;20.40;60.80;;;;;;4974763;28;88270;-70
2021/10/16 12:52:25;;;;;;;5.75;1.48;;;20.40;60.70;;;;;;4974843;28;87880;-70
2021/10/16 12:54:53;;;;;;;10.00;1.85;;;20.40;60.70;;;;;;4970244;28;88214;-70
2021/10/16 12:57:21;;;;;;;3.22;1.52;;;20.40;60.70;;;;;;4938523;28;88135;-70
2021/10/16 12:59:49;;;;;;;4.55;1.33;;;20.40;60.60;;;;;;4921301;28;89732;-70
2021/10/16 13:02:17;;;;;;;5.80;1.50;;;20.40;60.60;;;;;;4940467;28;89427;-70
2021/10/16 13:04:51;;;;;;;5.60;1.30;;;20.40;60.70;;;;;;4974524;28;87868;-70
2021/10/16 13:07:19;;;;;;;4.15;1.85;;;20.40;60.60;;;;;;4974573;28;89367;-70